sensor_id;sensor_type;location;lat;lon;timestamp;temperature;humidity
7658;DHT22;8462;53.156;8.220;2023-05-02T00:00:27;14.10;92.10
7658;DHT22;8462;53.156;8.220;2023-05-02T00:02:55;14.10;92.10
7658;DHT22;8462;53.156;8.220;2023-05-02T00:05:22;14.00;92.30
7658;DHT22;8462;53.156;8.220;2023-05-02T00:07:50;14.00;92.30
7658;DHT22;8462;53.156;8.220;2023-05-02T00:10:17;14.00;92.40
7658;DHT22;8462;53.156;8.220;2023-05-02T00:12:44;14.00;92.30
7658;DHT22;8462;53.156;8.220;2023-05-02T00:15:11;14.00;92.40
7658;DHT22;8462;53.156;8.220;2023-05-02T00:17:40;14.00;92.40
7658;DHT22;8462;53.156;8.220;2023-05-02T00:20:09;14.00;92.50
7658;DHT22;8462;53.156;8.220;2023-05-02T00:22:36;14.00;92.60
7658;DHT22;8462;53.156;8.220;2023-05-02T00:25:04;13.90;93.00
7658;DHT22;8462;53.156;8.220;2023-05-02T00:27:31;13.90;93.10
7658;DHT22;8462;53.156;8.220;2023-05-02T00:29:58;13.90;93.20
7658;DHT22;8462;53.156;8.220;2023-05-02T00:32:26;13.80;93.30
7658;DHT22;8462;53.156;8.220;2023-05-02T00:34:54;13.80;93.70
7658;DHT22;8462;53.156;8.220;2023-05-02T00:37:25;13.70;93.60
7658;DHT22;8462;53.156;8.220;2023-05-02T00:39:53;13.70;93.90
7658;DHT22;8462;53.156;8.220;2023-05-02T00:42:20;13.70;93.90
7658;DHT22;8462;53.156;8.220;2023-05-02T00:44:47;13.70;93.90
7658;DHT22;8462;53.156;8.220;2023-05-02T00:47:14;13.70;93.60
7658;DHT22;8462;53.156;8.220;2023-05-02T00:49:41;13.70;93.70
7658;DHT22;8462;53.156;8.220;2023-05-02T00:52:10;13.70;93.70
7658;DHT22;8462;53.156;8.220;2023-05-02T00:54:37;13.70;93.90
7658;DHT22;8462;53.156;8.220;2023-05-02T00:57:04;13.60;94.20
7658;DHT22;8462;53.156;8.220;2023-05-02T00:59:33;13.60;94.40
7658;DHT22;8462;53.156;8.220;2023-05-02T01:02:18;13.60;94.50
7658;DHT22;8462;53.156;8.220;2023-05-02T01:04:57;13.60;94.40
7658;DHT22;8462;53.156;8.220;2023-05-02T01:07:40;13.50;94.60
7658;DHT22;8462;53.156;8.220;2023-05-02T01:10:18;13.50;95.10
7658;DHT22;8462;53.156;8.220;2023-05-02T01:12:55;13.40;95.30
7658;DHT22;8462;53.156;8.220;2023-05-02T01:15:24;13.30;95.30
7658;DHT22;8462;53.156;8.220;2023-05-02T01:17:53;13.30;95.70
7658;DHT22;8462;53.156;8.220;2023-05-02T01:20:22;13.30;96.30
7658;DHT22;8462;53.156;8.220;2023-05-02T01:22:56;13.30;96.60
7658;DHT22;8462;53.156;8.220;2023-05-02T01:25:30;13.30;96.80
7658;DHT22;8462;53.156;8.220;2023-05-02T01:28:08;13.20;97.10
7658;DHT22;8462;53.156;8.220;2023-05-02T01:30:40;13.20;97.60
7658;DHT22;8462;53.156;8.220;2023-05-02T01:33:10;13.10;98.00
7658;DHT22;8462;53.156;8.220;2023-05-02T01:35:37;13.00;98.00
7658;DHT22;8462;53.156;8.220;2023-05-02T01:38:06;12.90;98.10
7658;DHT22;8462;53.156;8.220;2023-05-02T01:40:33;12.80;98.10
7658;DHT22;8462;53.156;8.220;2023-05-02T01:43:03;12.70;98.60
7658;DHT22;8462;53.156;8.220;2023-05-02T01:45:34;12.50;99.40
7658;DHT22;8462;53.156;8.220;2023-05-02T01:48:05;12.40;99.80
7658;DHT22;8462;53.156;8.220;2023-05-02T01:50:33;12.30;99.90
7658;DHT22;8462;53.156;8.220;2023-05-02T01:53:03;12.20;99.90
7658;DHT22;8462;53.156;8.220;2023-05-02T01:55:33;12.10;99.90
7658;DHT22;8462;53.156;8.220;2023-05-02T01:58:01;11.80;99.90
7658;DHT22;8462;53.156;8.220;2023-05-02T02:00:31;11.60;99.80
7658;DHT22;8462;53.156;8.220;2023-05-02T02:02:59;11.50;99.90
7658;DHT22;8462;53.156;8.220;2023-05-02T02:05:28;11.40;99.90
7658;DHT22;8462;53.156;8.220;2023-05-02T02:07:56;11.30;99.90
7658;DHT22;8462;53.156;8.220;2023-05-02T02:10:25;11.20;99.90
7658;DHT22;8462;53.156;8.220;2023-05-02T02:12:58;11.10;99.90
7658;DHT22;8462;53.156;8.220;2023-05-02T02:15:27;11.10;99.90
7658;DHT22;8462;53.156;8.220;2023-05-02T02:17:58;11.00;99.90
7658;DHT22;8462;53.156;8.220;2023-05-02T02:20:28;11.00;99.90
7658;DHT22;8462;53.156;8.220;2023-05-02T02:22:58;10.90;99.90
7658;DHT22;8462;53.156;8.220;2023-05-02T02:25:26;11.00;99.90
7658;DHT22;8462;53.156;8.220;2023-05-02T02:27:53;11.00;99.90
7658;DHT22;8462;53.156;8.220;2023-05-02T02:30:20;11.00;99.90
7658;DHT22;8462;53.156;8.220;2023-05-02T02:32:47;11.10;99.90
7658;DHT22;8462;53.156;8.220;2023-05-02T02:35:14;11.10;99.90
7658;DHT22;8462;53.156;8.220;2023-05-02T02:37:46;11.20;99.90
7658;DHT22;8462;53.156;8.220;2023-05-02T02:40:20;11.20;99.90
7658;DHT22;8462;53.156;8.220;2023-05-02T02:42:54;11.10;99.90
7658;DHT22;8462;53.156;8.220;2023-05-02T02:45:29;11.10;99.90
7658;DHT22;8462;53.156;8.220;2023-05-02T02:48:07;11.10;99.90
7658;DHT22;8462;53.156;8.220;2023-05-02T02:50:44;11.10;99.50
7658;DHT22;8462;53.156;8.220;2023-05-02T02:53:18;11.20;98.40
7658;DHT22;8462;53.156;8.220;2023-05-02T02:55:49;11.20;97.30
7658;DHT22;8462;53.156;8.220;2023-05-02T02:58:25;11.10;96.60
7658;DHT22;8462;53.156;8.220;2023-05-02T03:00:56;11.10;95.50
7658;DHT22;8462;53.156;8.220;2023-05-02T03:03:25;11.00;96.00
7658;DHT22;8462;53.156;8.220;2023-05-02T03:05:54;11.00;95.60
7658;DHT22;8462;53.156;8.220;2023-05-02T03:08:24;11.00;95.90
7658;DHT22;8462;53.156;8.220;2023-05-02T03:10:51;11.00;95.40
7658;DHT22;8462;53.156;8.220;2023-05-02T03:13:18;10.90;94.70
7658;DHT22;8462;53.156;8.220;2023-05-02T03:18:53;10.80;93.90
7658;DHT22;8462;53.156;8.220;2023-05-02T03:21:20;10.80;94.30
7658;DHT22;8462;53.156;8.220;2023-05-02T03:23:48;10.80;94.00
7658;DHT22;8462;53.156;8.220;2023-05-02T03:26:15;10.80;94.00
7658;DHT22;8462;53.156;8.220;2023-05-02T03:28:43;10.80;94.00
7658;DHT22;8462;53.156;8.220;2023-05-02T03:31:16;10.80;93.50
7658;DHT22;8462;53.156;8.220;2023-05-02T03:33:43;10.70;92.60
7658;DHT22;8462;53.156;8.220;2023-05-02T03:36:11;10.70;93.00
7658;DHT22;8462;53.156;8.220;2023-05-02T03:38:39;10.60;92.60
7658;DHT22;8462;53.156;8.220;2023-05-02T03:41:11;10.60;92.40
7658;DHT22;8462;53.156;8.220;2023-05-02T03:43:39;10.60;92.50
7658;DHT22;8462;53.156;8.220;2023-05-02T03:46:07;10.70;91.70
7658;DHT22;8462;53.156;8.220;2023-05-02T03:48:39;10.70;91.70
7658;DHT22;8462;53.156;8.220;2023-05-02T03:51:06;10.70;91.70
7658;DHT22;8462;53.156;8.220;2023-05-02T03:53:39;10.60;91.10
7658;DHT22;8462;53.156;8.220;2023-05-02T03:56:06;10.60;91.20
7658;DHT22;8462;53.156;8.220;2023-05-02T03:58:44;10.60;91.40
7658;DHT22;8462;53.156;8.220;2023-05-02T04:01:14;10.70;91.50
7658;DHT22;8462;53.156;8.220;2023-05-02T04:03:44;10.70;91.50
7658;DHT22;8462;53.156;8.220;2023-05-02T04:06:13;10.80;90.80
7658;DHT22;8462;53.156;8.220;2023-05-02T04:08:42;10.80;90.60
7658;DHT22;8462;53.156;8.220;2023-05-02T04:11:09;10.80;90.00
7658;DHT22;8462;53.156;8.220;2023-05-02T04:13:36;10.70;89.50
7658;DHT22;8462;53.156;8.220;2023-05-02T04:16:05;10.70;90.00
7658;DHT22;8462;53.156;8.220;2023-05-02T04:18:34;10.60;90.10
7658;DHT22;8462;53.156;8.220;2023-05-02T04:21:03;10.70;90.20
7658;DHT22;8462;53.156;8.220;2023-05-02T04:23:33;10.70;89.80
7658;DHT22;8462;53.156;8.220;2023-05-02T04:26:01;10.70;90.20
7658;DHT22;8462;53.156;8.220;2023-05-02T04:28:42;10.70;90.20
7658;DHT22;8462;53.156;8.220;2023-05-02T04:31:13;10.80;89.90
7658;DHT22;8462;53.156;8.220;2023-05-02T04:33:40;10.70;89.50
7658;DHT22;8462;53.156;8.220;2023-05-02T04:36:08;10.70;89.20
7658;DHT22;8462;53.156;8.220;2023-05-02T04:38:38;10.70;89.80
7658;DHT22;8462;53.156;8.220;2023-05-02T04:41:06;10.70;89.80
7658;DHT22;8462;53.156;8.220;2023-05-02T04:43:39;10.70;89.20
7658;DHT22;8462;53.156;8.220;2023-05-02T04:46:06;10.70;89.20
7658;DHT22;8462;53.156;8.220;2023-05-02T04:48:38;10.60;89.00
7658;DHT22;8462;53.156;8.220;2023-05-02T04:51:07;10.70;89.40
7658;DHT22;8462;53.156;8.220;2023-05-02T04:53:34;10.70;89.00
7658;DHT22;8462;53.156;8.220;2023-05-02T04:56:02;10.70;88.30
7658;DHT22;8462;53.156;8.220;2023-05-02T04:58:32;10.60;88.10
7658;DHT22;8462;53.156;8.220;2023-05-02T05:01:03;10.60;87.80
7658;DHT22;8462;53.156;8.220;2023-05-02T05:03:30;10.60;88.60
7658;DHT22;8462;53.156;8.220;2023-05-02T05:05:59;10.60;88.40
7658;DHT22;8462;53.156;8.220;2023-05-02T05:08:27;10.60;89.20
7658;DHT22;8462;53.156;8.220;2023-05-02T05:10:55;10.50;88.40
7658;DHT22;8462;53.156;8.220;2023-05-02T05:13:22;10.50;88.50
7658;DHT22;8462;53.156;8.220;2023-05-02T05:15:49;10.40;88.90
7658;DHT22;8462;53.156;8.220;2023-05-02T05:18:18;10.50;89.10
7658;DHT22;8462;53.156;8.220;2023-05-02T05:20:46;10.50;88.90
7658;DHT22;8462;53.156;8.220;2023-05-02T05:23:15;10.50;88.90
7658;DHT22;8462;53.156;8.220;2023-05-02T05:25:43;10.50;88.50
7658;DHT22;8462;53.156;8.220;2023-05-02T05:28:10;10.50;88.50
7658;DHT22;8462;53.156;8.220;2023-05-02T05:30:38;10.40;89.20
7658;DHT22;8462;53.156;8.220;2023-05-02T05:33:08;10.40;89.80
7658;DHT22;8462;53.156;8.220;2023-05-02T05:35:35;10.30;90.00
7658;DHT22;8462;53.156;8.220;2023-05-02T05:38:02;10.20;90.00
7658;DHT22;8462;53.156;8.220;2023-05-02T05:40:33;10.10;90.30
7658;DHT22;8462;53.156;8.220;2023-05-02T05:43:00;10.20;89.90
7658;DHT22;8462;53.156;8.220;2023-05-02T05:45:31;10.20;90.10
7658;DHT22;8462;53.156;8.220;2023-05-02T05:47:58;10.30;90.00
7658;DHT22;8462;53.156;8.220;2023-05-02T05:50:28;10.30;89.50
7658;DHT22;8462;53.156;8.220;2023-05-02T05:52:55;10.40;89.30
7658;DHT22;8462;53.156;8.220;2023-05-02T05:55:22;10.50;88.40
7658;DHT22;8462;53.156;8.220;2023-05-02T05:57:50;10.40;85.70
7658;DHT22;8462;53.156;8.220;2023-05-02T06:00:18;10.40;85.00
7658;DHT22;8462;53.156;8.220;2023-05-02T06:02:49;10.40;84.00
7658;DHT22;8462;53.156;8.220;2023-05-02T06:05:25;10.40;83.00
7658;DHT22;8462;53.156;8.220;2023-05-02T06:07:52;10.40;82.90
7658;DHT22;8462;53.156;8.220;2023-05-02T06:10:21;10.50;82.10
7658;DHT22;8462;53.156;8.220;2023-05-02T06:12:50;10.50;81.90
7658;DHT22;8462;53.156;8.220;2023-05-02T06:15:21;10.50;81.20
7658;DHT22;8462;53.156;8.220;2023-05-02T06:17:49;10.50;81.80
7658;DHT22;8462;53.156;8.220;2023-05-02T06:20:16;10.50;81.10
7658;DHT22;8462;53.156;8.220;2023-05-02T06:22:43;10.50;80.20
7658;DHT22;8462;53.156;8.220;2023-05-02T06:25:10;10.50;80.40
7658;DHT22;8462;53.156;8.220;2023-05-02T06:27:37;10.60;80.60
7658;DHT22;8462;53.156;8.220;2023-05-02T06:30:07;10.60;80.00
7658;DHT22;8462;53.156;8.220;2023-05-02T06:32:34;10.70;78.60
7658;DHT22;8462;53.156;8.220;2023-05-02T06:35:01;10.70;78.20
7658;DHT22;8462;53.156;8.220;2023-05-02T06:37:32;10.70;76.30
7658;DHT22;8462;53.156;8.220;2023-05-02T06:40:00;10.70;77.30
7658;DHT22;8462;53.156;8.220;2023-05-02T06:42:27;10.90;76.50
7658;DHT22;8462;53.156;8.220;2023-05-02T06:44:54;10.90;75.20
7658;DHT22;8462;53.156;8.220;2023-05-02T06:47:22;11.00;75.70
7658;DHT22;8462;53.156;8.220;2023-05-02T06:49:50;11.10;75.70
7658;DHT22;8462;53.156;8.220;2023-05-02T06:52:17;11.20;75.10
7658;DHT22;8462;53.156;8.220;2023-05-02T06:54:44;11.40;72.90
7658;DHT22;8462;53.156;8.220;2023-05-02T06:57:11;11.60;72.20
7658;DHT22;8462;53.156;8.220;2023-05-02T06:59:39;11.70;70.80
7658;DHT22;8462;53.156;8.220;2023-05-02T07:02:06;11.70;69.60
7658;DHT22;8462;53.156;8.220;2023-05-02T07:04:34;11.80;70.00
7658;DHT22;8462;53.156;8.220;2023-05-02T07:07:01;12.00;68.90
7658;DHT22;8462;53.156;8.220;2023-05-02T07:09:29;12.00;68.40
7658;DHT22;8462;53.156;8.220;2023-05-02T07:11:56;12.20;67.10
7658;DHT22;8462;53.156;8.220;2023-05-02T07:14:24;12.10;65.60
7658;DHT22;8462;53.156;8.220;2023-05-02T07:16:52;12.00;64.50
7658;DHT22;8462;53.156;8.220;2023-05-02T07:19:19;12.10;67.40
7658;DHT22;8462;53.156;8.220;2023-05-02T07:21:47;12.20;66.20
7658;DHT22;8462;53.156;8.220;2023-05-02T07:24:14;12.30;65.30
7658;DHT22;8462;53.156;8.220;2023-05-02T07:26:41;12.40;63.70
7658;DHT22;8462;53.156;8.220;2023-05-02T07:29:08;12.40;64.00
7658;DHT22;8462;53.156;8.220;2023-05-02T07:31:35;12.60;64.00
7658;DHT22;8462;53.156;8.220;2023-05-02T07:34:03;12.80;62.60
7658;DHT22;8462;53.156;8.220;2023-05-02T07:36:29;13.00;62.20
7658;DHT22;8462;53.156;8.220;2023-05-02T07:38:58;13.10;61.30
7658;DHT22;8462;53.156;8.220;2023-05-02T07:41:27;13.30;61.30
7658;DHT22;8462;53.156;8.220;2023-05-02T07:43:54;13.50;59.80
7658;DHT22;8462;53.156;8.220;2023-05-02T07:46:23;13.60;60.20
7658;DHT22;8462;53.156;8.220;2023-05-02T07:48:50;13.80;58.70
7658;DHT22;8462;53.156;8.220;2023-05-02T07:51:18;14.10;57.50
7658;DHT22;8462;53.156;8.220;2023-05-02T07:53:46;14.30;55.70
7658;DHT22;8462;53.156;8.220;2023-05-02T07:56:14;14.30;56.70
7658;DHT22;8462;53.156;8.220;2023-05-02T07:58:41;14.30;55.10
7658;DHT22;8462;53.156;8.220;2023-05-02T08:01:08;14.30;55.10
7658;DHT22;8462;53.156;8.220;2023-05-02T08:03:35;14.30;55.30
7658;DHT22;8462;53.156;8.220;2023-05-02T08:06:02;14.20;56.00
7658;DHT22;8462;53.156;8.220;2023-05-02T08:08:29;14.10;55.70
7658;DHT22;8462;53.156;8.220;2023-05-02T08:10:56;13.90;57.20
7658;DHT22;8462;53.156;8.220;2023-05-02T08:13:24;13.70;58.80
7658;DHT22;8462;53.156;8.220;2023-05-02T08:15:53;13.50;60.00
7658;DHT22;8462;53.156;8.220;2023-05-02T08:18:22;13.30;61.50
7658;DHT22;8462;53.156;8.220;2023-05-02T08:20:50;13.40;63.00
7658;DHT22;8462;53.156;8.220;2023-05-02T08:23:17;13.50;63.80
7658;DHT22;8462;53.156;8.220;2023-05-02T08:25:44;13.80;63.90
7658;DHT22;8462;53.156;8.220;2023-05-02T08:28:12;14.10;61.40
7658;DHT22;8462;53.156;8.220;2023-05-02T08:30:40;14.00;60.40
7658;DHT22;8462;53.156;8.220;2023-05-02T08:33:07;13.90;58.30
7658;DHT22;8462;53.156;8.220;2023-05-02T08:39:44;13.60;61.00
7658;DHT22;8462;53.156;8.220;2023-05-02T08:42:14;13.30;61.70
7658;DHT22;8462;53.156;8.220;2023-05-02T08:44:41;13.30;62.80
7658;DHT22;8462;53.156;8.220;2023-05-02T08:47:12;13.30;63.80
7658;DHT22;8462;53.156;8.220;2023-05-02T08:49:41;13.50;63.60
7658;DHT22;8462;53.156;8.220;2023-05-02T08:52:08;13.70;63.10
7658;DHT22;8462;53.156;8.220;2023-05-02T08:54:37;13.70;60.80
7658;DHT22;8462;53.156;8.220;2023-05-02T08:57:04;13.70;59.70
7658;DHT22;8462;53.156;8.220;2023-05-02T08:59:31;13.90;60.00
7658;DHT22;8462;53.156;8.220;2023-05-02T09:02:01;14.20;59.80
7658;DHT22;8462;53.156;8.220;2023-05-02T09:04:33;14.70;58.00
7658;DHT22;8462;53.156;8.220;2023-05-02T09:07:04;15.00;55.50
7658;DHT22;8462;53.156;8.220;2023-05-02T09:09:33;15.20;55.00
7658;DHT22;8462;53.156;8.220;2023-05-02T09:12:00;15.40;53.00
7658;DHT22;8462;53.156;8.220;2023-05-02T09:14:28;15.40;52.20
7658;DHT22;8462;53.156;8.220;2023-05-02T09:16:58;15.40;53.50
7658;DHT22;8462;53.156;8.220;2023-05-02T09:19:32;15.50;52.40
7658;DHT22;8462;53.156;8.220;2023-05-02T09:22:00;15.40;51.10
7658;DHT22;8462;53.156;8.220;2023-05-02T09:24:27;15.30;52.80
7658;DHT22;8462;53.156;8.220;2023-05-02T09:26:59;15.20;52.90
7658;DHT22;8462;53.156;8.220;2023-05-02T09:29:27;15.20;52.90
7658;DHT22;8462;53.156;8.220;2023-05-02T09:32:00;15.10;53.10
7658;DHT22;8462;53.156;8.220;2023-05-02T09:34:27;14.90;53.10
7658;DHT22;8462;53.156;8.220;2023-05-02T09:36:55;14.70;53.20
7658;DHT22;8462;53.156;8.220;2023-05-02T09:39:24;14.60;53.90
7658;DHT22;8462;53.156;8.220;2023-05-02T09:41:51;14.40;54.60
7658;DHT22;8462;53.156;8.220;2023-05-02T09:44:20;14.50;55.00
7658;DHT22;8462;53.156;8.220;2023-05-02T09:46:48;14.80;53.40
7658;DHT22;8462;53.156;8.220;2023-05-02T09:49:15;15.00;53.40
7658;DHT22;8462;53.156;8.220;2023-05-02T09:51:45;15.40;51.70
7658;DHT22;8462;53.156;8.220;2023-05-02T09:54:13;15.60;50.50
7658;DHT22;8462;53.156;8.220;2023-05-02T09:56:53;15.60;51.00
7658;DHT22;8462;53.156;8.220;2023-05-02T09:59:21;15.50;50.70
7658;DHT22;8462;53.156;8.220;2023-05-02T10:01:54;15.30;52.00
7658;DHT22;8462;53.156;8.220;2023-05-02T10:04:21;15.30;52.40
7658;DHT22;8462;53.156;8.220;2023-05-02T10:06:50;15.30;53.50
7658;DHT22;8462;53.156;8.220;2023-05-02T10:09:20;15.30;52.50
7658;DHT22;8462;53.156;8.220;2023-05-02T10:11:50;15.20;53.10
7658;DHT22;8462;53.156;8.220;2023-05-02T10:14:19;15.20;53.90
7658;DHT22;8462;53.156;8.220;2023-05-02T10:16:59;15.20;54.60
7658;DHT22;8462;53.156;8.220;2023-05-02T10:19:29;15.30;53.30
7658;DHT22;8462;53.156;8.220;2023-05-02T10:21:58;15.20;52.70
7658;DHT22;8462;53.156;8.220;2023-05-02T10:24:27;15.10;52.30
7658;DHT22;8462;53.156;8.220;2023-05-02T10:26:54;15.60;52.90
7658;DHT22;8462;53.156;8.220;2023-05-02T10:29:40;16.00;49.30
7658;DHT22;8462;53.156;8.220;2023-05-02T10:32:27;16.10;49.60
7658;DHT22;8462;53.156;8.220;2023-05-02T10:35:12;15.90;49.00
7658;DHT22;8462;53.156;8.220;2023-05-02T10:38:00;15.70;49.20
7658;DHT22;8462;53.156;8.220;2023-05-02T10:40:57;15.40;51.00
7658;DHT22;8462;53.156;8.220;2023-05-02T10:43:46;15.10;52.90
7658;DHT22;8462;53.156;8.220;2023-05-02T10:46:34;14.90;53.80
7658;DHT22;8462;53.156;8.220;2023-05-02T10:49:20;14.70;54.10
7658;DHT22;8462;53.156;8.220;2023-05-02T10:52:24;14.60;55.20
7658;DHT22;8462;53.156;8.220;2023-05-02T10:55:17;14.50;54.90
7658;DHT22;8462;53.156;8.220;2023-05-02T10:58:23;14.60;55.20
7658;DHT22;8462;53.156;8.220;2023-05-02T11:01:33;14.60;54.80
7658;DHT22;8462;53.156;8.220;2023-05-02T11:04:20;14.50;56.40
7658;DHT22;8462;53.156;8.220;2023-05-02T11:07:18;14.50;56.40
7658;DHT22;8462;53.156;8.220;2023-05-02T11:10:23;14.60;56.30
7658;DHT22;8462;53.156;8.220;2023-05-02T11:13:09;14.50;56.00
7658;DHT22;8462;53.156;8.220;2023-05-02T11:15:56;14.50;56.70
7658;DHT22;8462;53.156;8.220;2023-05-02T11:18:59;14.60;55.70
7658;DHT22;8462;53.156;8.220;2023-05-02T11:25:36;14.70;54.10
7658;DHT22;8462;53.156;8.220;2023-05-02T11:28:06;14.90;53.60
7658;DHT22;8462;53.156;8.220;2023-05-02T11:30:51;15.20;53.30
7658;DHT22;8462;53.156;8.220;2023-05-02T11:33:23;15.30;51.20
7658;DHT22;8462;53.156;8.220;2023-05-02T11:35:50;15.40;51.60
7658;DHT22;8462;53.156;8.220;2023-05-02T11:38:20;15.50;51.30
7658;DHT22;8462;53.156;8.220;2023-05-02T11:40:55;15.50;51.30
7658;DHT22;8462;53.156;8.220;2023-05-02T11:43:23;15.60;50.40
7658;DHT22;8462;53.156;8.220;2023-05-02T11:45:51;15.60;49.80
7658;DHT22;8462;53.156;8.220;2023-05-02T11:48:20;15.60;49.10
7658;DHT22;8462;53.156;8.220;2023-05-02T11:50:50;15.40;49.10
7658;DHT22;8462;53.156;8.220;2023-05-02T11:53:19;15.30;50.40
7658;DHT22;8462;53.156;8.220;2023-05-02T11:55:48;15.40;50.20
7658;DHT22;8462;53.156;8.220;2023-05-02T11:58:16;15.30;50.40
7658;DHT22;8462;53.156;8.220;2023-05-02T12:00:43;15.20;51.00
7658;DHT22;8462;53.156;8.220;2023-05-02T12:03:22;15.30;52.00
7658;DHT22;8462;53.156;8.220;2023-05-02T12:05:50;15.50;50.70
7658;DHT22;8462;53.156;8.220;2023-05-02T12:08:24;15.50;51.30
7658;DHT22;8462;53.156;8.220;2023-05-02T12:10:52;15.40;55.20
7658;DHT22;8462;53.156;8.220;2023-05-02T12:13:22;15.20;58.00
7658;DHT22;8462;53.156;8.220;2023-05-02T12:15:50;14.80;58.70
7658;DHT22;8462;53.156;8.220;2023-05-02T12:18:22;14.70;59.20
7658;DHT22;8462;53.156;8.220;2023-05-02T12:20:51;14.50;60.10
7658;DHT22;8462;53.156;8.220;2023-05-02T12:23:19;14.40;61.00
7658;DHT22;8462;53.156;8.220;2023-05-02T12:25:48;14.30;62.00
7658;DHT22;8462;53.156;8.220;2023-05-02T12:28:17;14.30;62.10
7658;DHT22;8462;53.156;8.220;2023-05-02T12:30:47;14.30;61.80
7658;DHT22;8462;53.156;8.220;2023-05-02T12:33:15;14.40;62.50
7658;DHT22;8462;53.156;8.220;2023-05-02T12:35:43;14.60;62.90
7658;DHT22;8462;53.156;8.220;2023-05-02T12:38:15;14.70;61.80
7658;DHT22;8462;53.156;8.220;2023-05-02T12:40:49;15.00;60.60
7658;DHT22;8462;53.156;8.220;2023-05-02T12:43:18;15.20;59.80
7658;DHT22;8462;53.156;8.220;2023-05-02T12:45:46;15.30;56.90
7658;DHT22;8462;53.156;8.220;2023-05-02T12:48:18;15.60;53.50
7658;DHT22;8462;53.156;8.220;2023-05-02T12:50:46;15.70;50.10
7658;DHT22;8462;53.156;8.220;2023-05-02T12:53:15;15.70;51.40
7658;DHT22;8462;53.156;8.220;2023-05-02T12:55:42;15.70;51.40
7658;DHT22;8462;53.156;8.220;2023-05-02T12:58:11;15.70;51.70
7658;DHT22;8462;53.156;8.220;2023-05-02T13:00:40;15.60;51.40
7658;DHT22;8462;53.156;8.220;2023-05-02T13:03:08;15.50;52.50
7658;DHT22;8462;53.156;8.220;2023-05-02T13:05:35;15.40;54.20
7658;DHT22;8462;53.156;8.220;2023-05-02T13:08:02;15.30;54.30
7658;DHT22;8462;53.156;8.220;2023-05-02T13:10:32;15.20;55.10
7658;DHT22;8462;53.156;8.220;2023-05-02T13:12:59;15.10;56.20
7658;DHT22;8462;53.156;8.220;2023-05-02T13:15:27;15.20;55.40
7658;DHT22;8462;53.156;8.220;2023-05-02T13:17:55;15.20;55.50
7658;DHT22;8462;53.156;8.220;2023-05-02T13:20:22;15.10;57.50
7658;DHT22;8462;53.156;8.220;2023-05-02T13:22:49;15.00;57.10
7658;DHT22;8462;53.156;8.220;2023-05-02T13:25:16;15.10;58.00
7658;DHT22;8462;53.156;8.220;2023-05-02T13:27:44;15.10;56.80
7658;DHT22;8462;53.156;8.220;2023-05-02T13:30:11;15.10;58.10
7658;DHT22;8462;53.156;8.220;2023-05-02T13:32:39;15.30;56.70
7658;DHT22;8462;53.156;8.220;2023-05-02T13:35:07;15.40;56.50
7658;DHT22;8462;53.156;8.220;2023-05-02T13:37:34;15.50;55.30
7658;DHT22;8462;53.156;8.220;2023-05-02T13:40:01;15.60;54.70
7658;DHT22;8462;53.156;8.220;2023-05-02T13:42:28;15.70;54.60
7658;DHT22;8462;53.156;8.220;2023-05-02T13:44:56;15.70;54.30
7658;DHT22;8462;53.156;8.220;2023-05-02T13:47:24;15.80;54.80
7658;DHT22;8462;53.156;8.220;2023-05-02T13:49:52;15.70;54.50
7658;DHT22;8462;53.156;8.220;2023-05-02T13:52:19;15.60;55.90
7658;DHT22;8462;53.156;8.220;2023-05-02T13:54:45;15.40;55.50
7658;DHT22;8462;53.156;8.220;2023-05-02T13:57:12;15.30;56.80
7658;DHT22;8462;53.156;8.220;2023-05-02T13:59:39;15.30;57.00
7658;DHT22;8462;53.156;8.220;2023-05-02T14:02:08;15.30;55.90
7658;DHT22;8462;53.156;8.220;2023-05-02T14:04:35;15.40;55.10
7658;DHT22;8462;53.156;8.220;2023-05-02T14:07:02;15.50;54.30
7658;DHT22;8462;53.156;8.220;2023-05-02T14:09:29;15.40;55.00
7658;DHT22;8462;53.156;8.220;2023-05-02T14:11:56;15.40;54.30
7658;DHT22;8462;53.156;8.220;2023-05-02T14:14:24;15.50;55.30
7658;DHT22;8462;53.156;8.220;2023-05-02T14:16:52;15.40;54.80
7658;DHT22;8462;53.156;8.220;2023-05-02T14:19:20;15.30;55.70
7658;DHT22;8462;53.156;8.220;2023-05-02T14:21:49;15.20;54.60
7658;DHT22;8462;53.156;8.220;2023-05-02T14:24:17;14.90;56.00
7658;DHT22;8462;53.156;8.220;2023-05-02T14:26:44;14.70;56.10
7658;DHT22;8462;53.156;8.220;2023-05-02T14:29:12;14.60;58.30
7658;DHT22;8462;53.156;8.220;2023-05-02T14:31:39;14.50;59.10
7658;DHT22;8462;53.156;8.220;2023-05-02T14:34:05;14.50;60.40
7658;DHT22;8462;53.156;8.220;2023-05-02T14:36:34;14.50;60.50
7658;DHT22;8462;53.156;8.220;2023-05-02T14:39:01;14.50;60.60
7658;DHT22;8462;53.156;8.220;2023-05-02T14:41:28;14.70;60.20
7658;DHT22;8462;53.156;8.220;2023-05-02T14:43:55;14.90;59.80
7658;DHT22;8462;53.156;8.220;2023-05-02T14:46:22;15.00;58.20
7658;DHT22;8462;53.156;8.220;2023-05-02T14:48:48;15.10;58.60
7658;DHT22;8462;53.156;8.220;2023-05-02T14:51:16;15.00;57.20
7658;DHT22;8462;53.156;8.220;2023-05-02T14:53:46;15.00;56.30
7658;DHT22;8462;53.156;8.220;2023-05-02T14:56:13;15.00;55.80
7658;DHT22;8462;53.156;8.220;2023-05-02T14:58:41;15.00;55.80
7658;DHT22;8462;53.156;8.220;2023-05-02T15:01:14;15.00;56.00
7658;DHT22;8462;53.156;8.220;2023-05-02T15:03:42;15.10;55.70
7658;DHT22;8462;53.156;8.220;2023-05-02T15:06:10;15.20;55.40
7658;DHT22;8462;53.156;8.220;2023-05-02T15:08:37;15.10;55.30
7658;DHT22;8462;53.156;8.220;2023-05-02T15:11:05;15.00;56.40
7658;DHT22;8462;53.156;8.220;2023-05-02T15:13:32;14.90;56.80
7658;DHT22;8462;53.156;8.220;2023-05-02T15:15:59;15.10;56.60
7658;DHT22;8462;53.156;8.220;2023-05-02T15:18:26;15.00;56.40
7658;DHT22;8462;53.156;8.220;2023-05-02T15:20:53;15.10;56.90
7658;DHT22;8462;53.156;8.220;2023-05-02T15:23:20;15.20;56.50
7658;DHT22;8462;53.156;8.220;2023-05-02T15:25:47;15.20;56.60
7658;DHT22;8462;53.156;8.220;2023-05-02T15:28:15;15.20;56.30
7658;DHT22;8462;53.156;8.220;2023-05-02T15:30:42;15.10;56.20
7658;DHT22;8462;53.156;8.220;2023-05-02T15:33:09;15.10;56.70
7658;DHT22;8462;53.156;8.220;2023-05-02T15:35:36;15.10;56.20
7658;DHT22;8462;53.156;8.220;2023-05-02T15:38:04;15.00;56.60
7658;DHT22;8462;53.156;8.220;2023-05-02T15:40:33;15.00;56.30
7658;DHT22;8462;53.156;8.220;2023-05-02T15:43:02;14.80;55.90
7658;DHT22;8462;53.156;8.220;2023-05-02T15:45:31;14.80;56.40
7658;DHT22;8462;53.156;8.220;2023-05-02T15:47:59;14.70;56.70
7658;DHT22;8462;53.156;8.220;2023-05-02T15:50:26;14.50;58.20
7658;DHT22;8462;53.156;8.220;2023-05-02T15:52:52;14.40;58.50
7658;DHT22;8462;53.156;8.220;2023-05-02T15:55:19;14.30;58.00
7658;DHT22;8462;53.156;8.220;2023-05-02T15:57:46;14.30;58.60
7658;DHT22;8462;53.156;8.220;2023-05-02T16:00:16;14.40;57.50
7658;DHT22;8462;53.156;8.220;2023-05-02T16:02:46;14.40;58.10
7658;DHT22;8462;53.156;8.220;2023-05-02T16:05:13;14.40;58.60
7658;DHT22;8462;53.156;8.220;2023-05-02T16:07:40;14.50;57.60
7658;DHT22;8462;53.156;8.220;2023-05-02T16:10:13;14.50;58.10
7658;DHT22;8462;53.156;8.220;2023-05-02T16:12:40;14.40;56.20
7658;DHT22;8462;53.156;8.220;2023-05-02T16:15:08;14.40;57.00
7658;DHT22;8462;53.156;8.220;2023-05-02T16:17:35;14.30;55.90
7658;DHT22;8462;53.156;8.220;2023-05-02T16:20:04;14.20;56.50
7658;DHT22;8462;53.156;8.220;2023-05-02T16:22:31;14.20;56.00
7658;DHT22;8462;53.156;8.220;2023-05-02T16:24:59;14.10;56.30
7658;DHT22;8462;53.156;8.220;2023-05-02T16:27:26;14.10;56.40
7658;DHT22;8462;53.156;8.220;2023-05-02T16:29:53;14.10;56.90